createdAt,value
2022-11-15T00:00:15.349Z,31.27
2022-11-15T00:02:44.985Z,30.90
2022-11-15T00:05:13.255Z,30.07
2022-11-15T00:07:55.168Z,30.33
2022-11-15T00:10:24.104Z,29.50
2022-11-15T00:12:52.375Z,29.77
2022-11-15T00:15:20.602Z,29.37
2022-11-15T00:18:15.952Z,30.03
2022-11-15T00:20:44.546Z,29.73
2022-11-15T00:23:13.173Z,29.97
2022-11-15T00:25:41.676Z,30.13
2022-11-15T00:28:10.017Z,30.60
2022-11-15T00:30:38.262Z,30.07
2022-11-15T00:33:07.234Z,28.97
2022-11-15T00:35:37.212Z,29.10
2022-11-15T00:38:05.543Z,28.60
2022-11-15T00:40:33.758Z,28.00
2022-11-15T00:43:02.026Z,28.03
2022-11-15T00:45:30.230Z,28.80
2022-11-15T00:47:58.486Z,27.90
2022-11-15T00:50:26.740Z,27.93
2022-11-15T00:52:56.381Z,28.67
2022-11-15T00:55:24.584Z,27.50
2022-11-15T00:57:52.792Z,25.80
2022-11-15T01:00:21.191Z,27.00
2022-11-15T01:02:49.983Z,25.80
2022-11-15T01:05:18.377Z,27.07
2022-11-15T01:07:46.616Z,26.60
2022-11-15T01:10:16.387Z,26.80
2022-11-15T01:12:44.614Z,27.37
2022-11-15T01:15:13.030Z,26.13
2022-11-15T01:17:41.332Z,27.77
2022-11-15T01:20:41.659Z,26.87
2022-11-15T01:23:09.937Z,24.87
2022-11-15T01:25:39.538Z,26.43
2022-11-15T01:28:33.395Z,25.87
2022-11-15T01:31:02.042Z,26.67
2022-11-15T01:33:31.108Z,24.90
2022-11-15T01:35:59.482Z,25.63
2022-11-15T01:38:27.673Z,25.67
2022-11-15T01:40:57.272Z,26.20
2022-11-15T01:43:27.748Z,25.37
2022-11-15T01:46:02.499Z,26.53
2022-11-15T01:48:34.310Z,25.27
2022-11-15T01:51:06.746Z,25.03
2022-11-15T01:53:37.427Z,24.97
2022-11-15T01:56:10.472Z,26.33
2022-11-15T01:58:43.267Z,25.07
2022-11-15T02:01:11.861Z,23.40
2022-11-15T02:04:12.163Z,23.00
2022-11-15T02:06:41.919Z,23.73
2022-11-15T02:09:10.170Z,24.70
2022-11-15T02:11:39.881Z,23.97
2022-11-15T02:14:09.269Z,24.57
2022-11-15T02:16:45.681Z,24.37
2022-11-15T02:19:29.020Z,24.70
2022-11-15T02:22:29.813Z,23.37
2022-11-15T02:25:23.283Z,23.47
2022-11-15T02:28:18.300Z,24.47
2022-11-15T02:30:52.127Z,23.10
2022-11-15T02:33:33.172Z,25.33
2022-11-15T02:36:04.297Z,24.40
2022-11-15T02:38:40.043Z,24.20
2022-11-15T02:41:26.108Z,24.40
2022-11-15T02:44:22.656Z,23.23
2022-11-15T02:47:13.705Z,23.13
2022-11-15T02:49:45.707Z,22.80
2022-11-15T02:52:18.119Z,23.67
2022-11-15T02:54:56.236Z,23.67
2022-11-15T02:57:41.604Z,22.57
2022-11-15T03:00:11.375Z,23.50
2022-11-15T03:02:52.697Z,22.77
2022-11-15T03:05:27.278Z,21.27
2022-11-15T03:08:02.941Z,23.17
2022-11-15T03:10:38.135Z,22.63
2022-11-15T03:13:19.244Z,23.83
2022-11-15T03:15:55.458Z,22.73
2022-11-15T03:18:32.106Z,25.80
2022-11-15T03:21:26.255Z,23.30
2022-11-15T03:23:56.608Z,24.80
2022-11-15T03:26:27.172Z,23.70
2022-11-15T03:28:59.543Z,23.47
2022-11-15T03:31:51.173Z,25.63
2022-11-15T03:34:28.178Z,26.00
2022-11-15T03:36:56.773Z,26.53
2022-11-15T03:39:26.713Z,24.53
2022-11-15T03:42:06.132Z,24.00
2022-11-15T03:44:43.696Z,24.07
2022-11-15T03:47:16.145Z,25.60
2022-11-15T03:49:53.191Z,26.53
2022-11-15T03:52:22.544Z,25.37
2022-11-15T03:54:53.208Z,26.10
2022-11-15T03:57:21.425Z,25.07
2022-11-15T03:59:49.623Z,24.10
2022-11-15T04:02:17.946Z,26.90
2022-11-15T04:04:47.542Z,26.07
2022-11-15T04:07:15.862Z,26.07
2022-11-15T04:09:58.101Z,25.70
2022-11-15T04:12:32.661Z,27.10
2022-11-15T04:15:11.654Z,25.40
2022-11-15T04:17:41.893Z,24.90
2022-11-15T04:20:31.675Z,25.23
2022-11-15T04:23:19.099Z,29.97
2022-11-15T04:25:48.161Z,28.73
2022-11-15T04:28:16.483Z,32.73
2022-11-15T04:30:44.716Z,37.33
2022-11-15T04:33:12.988Z,31.00
2022-11-15T04:36:18.004Z,34.40
2022-11-15T04:38:46.276Z,25.77
2022-11-15T04:41:14.475Z,27.63
2022-11-15T04:43:42.650Z,26.07
2022-11-15T04:46:10.923Z,26.93
2022-11-15T04:48:39.144Z,25.63
2022-11-15T04:51:14.897Z,25.07
2022-11-15T04:53:43.090Z,24.00
2022-11-15T04:56:11.466Z,27.87
2022-11-15T04:58:39.791Z,28.70
2022-11-15T05:01:10.116Z,25.17
2022-11-15T05:03:56.244Z,28.40
2022-11-15T05:06:25.843Z,27.43
2022-11-15T05:08:54.515Z,27.00
2022-11-15T05:11:22.935Z,27.03
2022-11-15T05:13:51.634Z,27.97
2022-11-15T05:16:19.833Z,33.07
2022-11-15T05:19:13.116Z,56.47
2022-11-15T05:21:42.829Z,42.50
2022-11-15T05:24:12.432Z,40.00
2022-11-15T05:26:40.647Z,34.10
2022-11-15T05:29:08.919Z,29.83
2022-11-15T05:31:42.485Z,32.33
2022-11-15T05:34:10.834Z,30.30
2022-11-15T05:36:40.278Z,28.40
2022-11-15T05:39:10.177Z,28.63
2022-11-15T05:41:42.131Z,30.77
2022-11-15T05:44:13.705Z,32.30
2022-11-15T05:46:44.290Z,30.63
2022-11-15T05:49:15.305Z,43.57
2022-11-15T05:51:46.279Z,39.97
2022-11-15T05:54:16.461Z,34.40
2022-11-15T05:56:45.573Z,32.17
2022-11-15T05:59:14.146Z,33.50
2022-11-15T06:01:42.798Z,32.60
2022-11-15T06:04:11.114Z,34.80
2022-11-15T06:06:39.412Z,32.73
2022-11-15T06:09:10.924Z,31.83
2022-11-15T06:11:40.526Z,31.83
2022-11-15T06:14:08.979Z,31.00
2022-11-15T06:16:37.256Z,30.40
2022-11-15T06:19:05.636Z,26.77
2022-11-15T06:21:33.843Z,27.13
2022-11-15T06:24:02.317Z,28.37
2022-11-15T06:26:30.527Z,25.57
2022-11-15T06:41:02.874Z,24.13
2022-11-15T06:43:56.252Z,22.63
2022-11-15T06:46:24.825Z,22.23
2022-11-15T06:48:53.432Z,21.13
2022-11-15T06:51:22.132Z,23.70
2022-11-15T06:53:50.376Z,22.73
2022-11-15T06:56:20.007Z,24.20
2022-11-15T06:58:54.468Z,28.17
2022-11-15T07:01:22.853Z,24.33
2022-11-15T07:03:51.130Z,23.10
2022-11-15T07:06:19.367Z,23.87
2022-11-15T07:08:47.625Z,25.03
2022-11-15T07:11:15.835Z,22.17
2022-11-15T07:13:45.404Z,21.43
2022-11-15T07:16:13.743Z,21.53
2022-11-15T07:18:42.694Z,22.23
2022-11-15T07:21:12.298Z,19.03
2022-11-15T07:23:41.137Z,20.00
2022-11-15T07:26:10.158Z,18.57
2022-11-15T07:28:38.835Z,18.97
2022-11-15T07:31:10.172Z,20.77
2022-11-15T07:33:38.472Z,17.47
2022-11-15T07:36:08.331Z,20.40
2022-11-15T07:38:42.468Z,22.90
2022-11-15T07:41:11.795Z,24.57
2022-11-15T07:43:40.009Z,24.43
2022-11-15T07:46:10.894Z,22.43
2022-11-15T07:48:45.263Z,23.67
2022-11-15T07:51:15.356Z,23.80
2022-11-15T07:53:43.831Z,23.33
2022-11-15T07:56:12.760Z,21.23
2022-11-15T07:58:41.152Z,21.60
2022-11-15T08:01:14.307Z,24.47
2022-11-15T08:03:42.684Z,22.90
2022-11-15T08:06:10.919Z,22.23
2022-11-15T08:08:39.115Z,25.93
2022-11-15T08:11:07.336Z,22.03
2022-11-15T08:13:35.799Z,22.00
2022-11-15T08:16:06.431Z,20.73
2022-11-15T08:18:36.530Z,19.60
2022-11-15T08:21:05.680Z,19.90
2022-11-15T08:23:34.134Z,19.23
2022-11-15T08:26:08.323Z,20.33
2022-11-15T08:28:36.536Z,23.03
2022-11-15T08:31:05.666Z,22.70
2022-11-15T08:33:35.980Z,20.90
2022-11-15T08:36:04.455Z,21.77
2022-11-15T08:38:33.204Z,24.00
2022-11-15T08:41:04.756Z,24.40
2022-11-15T08:43:33.368Z,23.77
2022-11-15T08:49:10.855Z,26.90
2022-11-15T08:51:39.069Z,26.90
2022-11-15T08:54:07.393Z,29.57
2022-11-15T08:56:35.671Z,24.57
2022-11-15T08:59:03.877Z,24.93
2022-11-15T09:01:33.660Z,29.67
2022-11-15T09:04:01.953Z,27.23
2022-11-15T09:06:31.662Z,24.07
2022-11-15T09:09:00.167Z,25.63
2022-11-15T09:11:28.434Z,23.10
2022-11-15T09:13:57.018Z,24.17
2022-11-15T09:16:25.327Z,24.07
2022-11-15T09:19:18.329Z,25.43
2022-11-15T09:21:47.908Z,24.57
2022-11-15T09:24:16.270Z,28.90
2022-11-15T09:29:30.078Z,25.53
2022-11-15T09:31:58.267Z,25.27
2022-11-15T09:34:41.274Z,28.47
2022-11-15T09:37:10.848Z,29.67
2022-11-15T09:39:39.068Z,29.23
2022-11-15T09:42:28.056Z,29.23
2022-11-15T09:45:15.226Z,27.07
2022-11-15T09:48:09.416Z,28.77
2022-11-15T10:01:43.937Z,25.40
2022-11-15T10:04:12.417Z,27.93
2022-11-15T10:06:46.792Z,26.73
2022-11-15T10:09:23.927Z,24.33
2022-11-15T10:11:52.539Z,27.27
2022-11-15T10:14:23.084Z,24.80
2022-11-15T10:17:11.665Z,25.90
2022-11-15T10:19:52.804Z,25.30
2022-11-15T10:22:29.180Z,24.03
2022-11-15T10:25:13.598Z,23.50
2022-11-15T10:27:42.903Z,26.93
2022-11-15T10:30:17.857Z,25.23
2022-11-15T10:32:50.369Z,26.30
2022-11-15T10:35:27.350Z,24.17
2022-11-15T10:38:08.519Z,26.37
2022-11-15T10:43:31.811Z,25.80
2022-11-15T10:46:45.037Z,25.50
2022-11-15T10:49:17.175Z,27.90
2022-11-15T10:51:50.020Z,31.33
2022-11-15T10:54:24.860Z,34.27
2022-11-15T10:56:55.381Z,30.83
2022-11-15T10:59:28.094Z,31.23
2022-11-15T11:02:32.389Z,34.67
2022-11-15T11:05:02.838Z,33.57
2022-11-15T11:07:32.952Z,34.30
2022-11-15T11:13:24.047Z,39.20
2022-11-15T11:15:57.164Z,43.33
2022-11-15T11:18:30.773Z,44.23
2022-11-15T11:21:05.554Z,41.07
2022-11-15T11:23:48.939Z,44.93
2022-11-15T11:26:37.811Z,40.80
2022-11-15T11:29:29.432Z,40.37
2022-11-15T11:32:05.281Z,46.23
2022-11-15T11:34:44.562Z,51.33
2022-11-15T11:37:23.012Z,46.70
2022-11-15T11:40:07.509Z,49.03
2022-11-15T11:43:10.922Z,50.80
2022-11-15T11:45:52.598Z,47.87
2022-11-15T11:48:35.017Z,51.83
2022-11-15T11:51:10.404Z,51.13
2022-11-15T11:54:06.151Z,54.90
2022-11-15T11:56:36.855Z,58.73
2022-11-15T11:59:14.736Z,52.43
2022-11-15T12:01:53.442Z,52.57
2022-11-15T12:04:51.089Z,51.77
2022-11-15T12:07:25.231Z,55.87
2022-11-15T12:10:00.598Z,53.03
2022-11-15T12:12:37.194Z,52.47
2022-11-15T12:15:13.538Z,57.40
2022-11-15T12:17:43.487Z,57.60
2022-11-15T12:20:19.996Z,57.97
2022-11-15T12:22:56.380Z,60.43
2022-11-15T12:25:31.364Z,57.30
2022-11-15T12:28:15.745Z,56.60
2022-11-15T12:30:50.978Z,54.27
2022-11-15T12:33:34.184Z,57.33
2022-11-15T12:36:04.199Z,54.50
2022-11-15T12:38:55.720Z,55.83
2022-11-15T12:42:14.821Z,55.73
2022-11-15T12:45:02.189Z,53.80
2022-11-15T12:47:30.412Z,55.03
2022-11-15T12:49:58.610Z,55.03
2022-11-15T12:52:26.888Z,52.13
2022-11-15T12:55:05.279Z,52.67
2022-11-15T12:57:44.261Z,51.37
2022-11-15T13:00:50.008Z,51.70
2022-11-15T13:03:27.052Z,50.77
2022-11-15T13:06:46.330Z,49.13
2022-11-15T13:09:56.018Z,51.53
2022-11-15T13:12:53.402Z,49.20
2022-11-15T13:15:47.270Z,47.67
2022-11-15T13:18:42.188Z,48.37
2022-11-15T13:22:08.638Z,48.00
2022-11-15T13:24:40.783Z,44.83
2022-11-15T13:27:17.932Z,43.97
2022-11-15T13:29:46.336Z,42.43
2022-11-15T13:32:15.968Z,43.10
2022-11-15T13:34:52.816Z,43.00
2022-11-15T13:37:33.536Z,41.17
2022-11-15T13:40:20.967Z,41.23
2022-11-15T13:42:49.845Z,36.20
2022-11-15T13:45:19.988Z,37.40
2022-11-15T13:47:54.608Z,36.57
2022-11-15T13:50:29.666Z,41.60
2022-11-15T13:53:01.093Z,39.90
2022-11-15T13:55:30.757Z,38.43
2022-11-15T13:58:00.958Z,42.60
2022-11-15T14:00:35.075Z,41.87
2022-11-15T14:03:15.470Z,39.33
2022-11-15T14:05:45.322Z,37.80
2022-11-15T14:08:25.410Z,41.47
2022-11-15T14:11:11.761Z,39.67
2022-11-15T14:13:40.212Z,35.73
2022-11-15T14:16:20.417Z,35.90
2022-11-15T14:18:50.372Z,38.73
2022-11-15T14:21:29.266Z,37.07
2022-11-15T14:24:18.472Z,34.33
2022-11-15T14:26:47.272Z,36.50
2022-11-15T14:29:40.698Z,35.57
2022-11-15T14:32:15.523Z,35.80
2022-11-15T14:34:43.901Z,33.93
2022-11-15T14:37:22.806Z,34.40
2022-11-15T14:39:51.342Z,35.70
2022-11-15T14:42:20.312Z,34.40
2022-11-15T14:44:48.932Z,34.93
2022-11-15T14:47:17.628Z,35.73
2022-11-15T14:49:46.528Z,37.07
2022-11-15T14:52:32.650Z,35.03
2022-11-15T14:55:03.309Z,38.23
2022-11-15T14:57:32.190Z,36.37
2022-11-15T15:00:00.653Z,36.50
2022-11-15T15:02:29.520Z,36.60
2022-11-15T15:05:02.091Z,36.23
2022-11-15T15:07:31.835Z,38.43
2022-11-15T15:10:24.860Z,37.63
2022-11-15T15:12:48.601Z,37.00
2022-11-15T15:15:20.610Z,37.13
2022-11-15T15:17:48.920Z,47.43
2022-11-15T15:20:17.857Z,86.33
2022-11-15T15:22:47.696Z,93.03
2022-11-15T15:25:24.129Z,67.90
2022-11-15T15:27:52.415Z,46.53
2022-11-15T15:30:20.903Z,45.67
2022-11-15T15:32:49.192Z,42.20
2022-11-15T15:35:18.864Z,43.67
2022-11-15T15:37:49.912Z,42.23
2022-11-15T15:40:21.032Z,42.73
2022-11-15T15:42:49.588Z,41.07
2022-11-15T15:45:18.705Z,41.47
2022-11-15T15:47:48.060Z,39.00
2022-11-15T15:50:24.041Z,38.90
2022-11-15T15:52:55.412Z,38.23
2022-11-15T15:55:24.388Z,41.77
2022-11-15T15:57:52.861Z,45.70
2022-11-15T16:00:22.314Z,42.43
2022-11-15T16:02:50.597Z,39.60
2022-11-15T16:05:19.391Z,40.07
2022-11-15T16:07:48.892Z,37.47
2022-11-15T16:10:27.044Z,39.30
2022-11-15T16:12:56.663Z,42.80
2022-11-15T16:15:26.726Z,37.23
2022-11-15T16:17:56.951Z,41.47
2022-11-15T16:20:37.497Z,43.67
2022-11-15T16:23:09.366Z,56.27
2022-11-15T16:25:58.262Z,51.23
2022-11-15T16:28:28.514Z,50.23
2022-11-15T16:31:08.272Z,48.33
2022-11-15T16:34:30.678Z,44.53
2022-11-15T16:36:59.907Z,44.20
2022-11-15T16:39:30.866Z,41.83
2022-11-15T16:42:00.874Z,44.47
2022-11-15T16:44:30.376Z,48.23
2022-11-15T16:46:58.576Z,47.57
2022-11-15T16:49:26.904Z,47.20
2022-11-15T16:51:55.117Z,44.33
2022-11-15T16:54:23.440Z,42.03
2022-11-15T16:56:51.719Z,41.37
2022-11-15T16:59:21.399Z,43.67
2022-11-15T17:01:51.759Z,45.20
2022-11-15T17:04:45.363Z,43.23
2022-11-15T17:07:13.671Z,46.03
2022-11-15T17:09:41.987Z,46.73
2022-11-15T17:12:11.727Z,48.20
2022-11-15T17:14:41.407Z,49.43
2022-11-15T17:17:10.852Z,44.43
2022-11-15T17:19:39.202Z,46.90
2022-11-15T17:22:07.427Z,52.93
2022-11-15T17:24:35.722Z,44.60
2022-11-15T17:27:07.417Z,47.80
2022-11-15T17:29:35.854Z,50.00
2022-11-15T17:32:05.695Z,52.70
2022-11-15T17:34:33.879Z,47.63
2022-11-15T17:37:02.332Z,65.33
2022-11-15T17:39:30.757Z,67.97
2022-11-15T17:41:59.179Z,54.40
2022-11-15T17:44:27.587Z,48.93
2022-11-15T17:46:55.858Z,52.13
2022-11-15T17:49:25.624Z,53.03
2022-11-15T17:51:54.720Z,47.23
2022-11-15T17:54:22.998Z,47.07
2022-11-15T17:56:51.191Z,54.93
2022-11-15T17:59:21.784Z,54.87
2022-11-15T18:01:50.399Z,49.53
2022-11-15T18:04:18.744Z,46.60
2022-11-15T18:06:48.648Z,51.10
2022-11-15T18:09:16.931Z,50.20
2022-11-15T18:11:50.536Z,49.93
2022-11-15T18:14:20.603Z,49.30
2022-11-15T18:16:49.171Z,49.77
2022-11-15T18:19:17.441Z,49.80
2022-11-15T18:21:57.368Z,51.53
2022-11-15T18:24:26.510Z,49.93
2022-11-15T18:26:54.951Z,47.27
2022-11-15T18:29:24.579Z,46.43
2022-11-15T18:31:55.721Z,48.80
2022-11-15T18:34:24.852Z,45.83
2022-11-15T18:36:54.696Z,47.40
2022-11-15T18:39:23.011Z,46.63
2022-11-15T18:41:52.219Z,49.67
2022-11-15T18:44:20.663Z,49.70
2022-11-15T18:46:49.690Z,47.33
2022-11-15T18:49:19.746Z,47.93
2022-11-15T18:51:48.918Z,46.43
2022-11-15T18:54:19.018Z,43.17
2022-11-15T18:56:47.604Z,40.77
2022-11-15T18:59:16.309Z,42.53
2022-11-15T19:01:48.614Z,40.37
2022-11-15T19:04:18.728Z,42.07
2022-11-15T19:06:49.043Z,45.20
2022-11-15T19:09:20.272Z,43.33
2022-11-15T19:11:51.514Z,42.23
2022-11-15T19:14:24.253Z,39.83
2022-11-15T19:16:53.198Z,39.60
2022-11-15T19:19:23.413Z,40.00
2022-11-15T19:22:11.094Z,39.67
2022-11-15T19:24:40.753Z,37.57
2022-11-15T19:27:09.337Z,35.70
2022-11-15T19:29:37.581Z,45.17
2022-11-15T19:32:06.399Z,43.83
2022-11-15T19:34:34.723Z,41.30
2022-11-15T19:37:03.404Z,39.33
2022-11-15T19:39:31.773Z,39.20
2022-11-15T19:42:27.217Z,39.33
2022-11-15T19:44:55.541Z,39.53
2022-11-15T19:47:25.865Z,38.70
2022-11-15T19:49:54.093Z,40.83
2022-11-15T19:52:24.307Z,39.60
2022-11-15T19:54:52.472Z,41.70
2022-11-15T19:57:20.732Z,40.93
2022-11-15T19:59:50.387Z,41.70
2022-11-15T20:02:18.636Z,41.77
2022-11-15T20:04:46.813Z,52.30
2022-11-15T20:07:15.118Z,44.07
2022-11-15T20:09:43.670Z,43.93
2022-11-15T20:12:11.993Z,46.03
2022-11-15T20:14:45.944Z,41.77
2022-11-15T20:17:15.650Z,48.77
2022-11-15T20:19:44.865Z,45.07
2022-11-15T20:22:13.116Z,43.53
2022-11-15T20:24:41.336Z,53.03
2022-11-15T20:27:10.400Z,46.50
2022-11-15T20:29:43.687Z,40.63
2022-11-15T20:32:13.128Z,42.70
2022-11-15T20:34:42.672Z,45.70
2022-11-15T20:37:10.947Z,45.63
2022-11-15T20:39:39.429Z,44.27
2022-11-15T20:42:08.546Z,41.43
2022-11-15T20:44:36.738Z,45.37
2022-11-15T20:47:06.170Z,43.43
2022-11-15T20:49:34.377Z,45.00
2022-11-15T20:52:04.086Z,42.53
2022-11-15T20:54:32.310Z,43.77
2022-11-15T20:57:00.545Z,45.07
2022-11-15T20:59:28.816Z,44.03
2022-11-15T21:01:57.153Z,40.47
2022-11-15T21:04:25.412Z,43.27
2022-11-15T21:06:53.705Z,45.93
2022-11-15T21:09:41.224Z,43.40
2022-11-15T21:12:13.401Z,45.43
2022-11-15T21:14:42.668Z,44.43
2022-11-15T21:17:11.247Z,45.13
2022-11-15T21:19:39.718Z,45.27
2022-11-15T21:22:09.330Z,41.27
2022-11-15T21:24:39.149Z,44.20
2022-11-15T21:27:07.563Z,42.60
2022-11-15T21:29:38.736Z,38.63
2022-11-15T21:32:08.284Z,40.30
2022-11-15T21:34:36.807Z,41.80
2022-11-15T21:37:05.835Z,41.97
2022-11-15T21:39:34.239Z,43.70
2022-11-15T21:42:04.108Z,41.13
2022-11-15T21:44:32.722Z,42.83
2022-11-15T21:47:01.495Z,47.20
2022-11-15T21:49:54.603Z,42.57
2022-11-15T21:52:22.904Z,42.30
2022-11-15T21:54:51.177Z,42.97
2022-11-15T21:57:21.313Z,45.27
2022-11-15T22:00:06.825Z,39.77
2022-11-15T22:02:35.098Z,46.63
2022-11-15T22:05:03.595Z,60.23
2022-11-15T22:07:32.050Z,50.83
2022-11-15T22:10:00.332Z,48.87
2022-11-15T22:12:54.712Z,39.33
2022-11-15T22:15:23.081Z,41.00
2022-11-15T22:18:00.207Z,39.40
2022-11-15T22:20:44.142Z,40.17
2022-11-15T22:23:13.024Z,39.90
2022-11-15T22:25:41.289Z,38.10
2022-11-15T22:28:10.998Z,45.83
2022-11-15T22:30:41.006Z,42.00
2022-11-15T22:33:09.212Z,39.50
2022-11-15T22:35:37.947Z,36.90
2022-11-15T22:38:06.322Z,38.33
2022-11-15T22:40:34.919Z,39.83
2022-11-15T22:43:03.659Z,37.33
2022-11-15T22:45:33.924Z,37.00
2022-11-15T22:48:02.187Z,34.07
2022-11-15T22:50:30.613Z,34.43
2022-11-15T22:52:58.859Z,35.47
2022-11-15T22:55:27.189Z,33.23
2022-11-15T22:57:55.448Z,34.93
2022-11-15T23:00:24.017Z,36.30
2022-11-15T23:02:54.524Z,38.77
2022-11-15T23:05:23.268Z,48.03
2022-11-15T23:07:51.617Z,35.57
2022-11-15T23:10:37.675Z,35.30
2022-11-15T23:13:18.721Z,31.83
2022-11-15T23:16:06.705Z,32.50
2022-11-15T23:18:38.205Z,32.87
2022-11-15T23:21:10.514Z,33.53
2022-11-15T23:24:03.003Z,31.90
2022-11-15T23:26:31.313Z,28.97
2022-11-15T23:28:59.770Z,28.77
2022-11-15T23:31:45.521Z,30.90
2022-11-15T23:34:18.554Z,31.63
2022-11-15T23:36:50.458Z,28.87
2022-11-15T23:39:19.086Z,29.43
2022-11-15T23:41:47.373Z,30.30
2022-11-15T23:44:15.591Z,28.73
2022-11-15T23:46:43.855Z,30.80
2022-11-15T23:49:12.078Z,30.40
2022-11-15T23:51:42.098Z,32.77
2022-11-15T23:54:10.724Z,32.70
2022-11-15T23:56:39.399Z,32.67
2022-11-15T23:59:07.835Z,32.07
